createdAt,value
2022-08-24T00:00:31.644Z,5.60
2022-08-24T00:03:36.825Z,4.53
2022-08-24T00:06:43.717Z,4.65
2022-08-24T00:09:49.532Z,3.98
2022-08-24T00:12:58.455Z,5.37
2022-08-24T00:16:04.270Z,5.28
2022-08-24T00:19:10.982Z,5.08
2022-08-24T00:22:16.826Z,4.80
2022-08-24T00:25:24.924Z,4.78
2022-08-24T00:28:30.211Z,4.60
2022-08-24T00:31:37.125Z,4.87
2022-08-24T00:34:56.152Z,4.95
2022-08-24T00:37:51.268Z,5.20
2022-08-24T00:41:01.870Z,6.28
2022-08-24T00:44:14.161Z,5.40
2022-08-24T00:47:29.281Z,5.37
2022-08-24T00:50:42.615Z,5.85
2022-08-24T00:53:54.122Z,5.53
2022-08-24T00:57:03.758Z,5.55
2022-08-24T01:00:14.034Z,4.92
2022-08-24T01:03:20.876Z,6.00
2022-08-24T01:06:26.602Z,5.05
2022-08-24T01:09:31.419Z,5.22
2022-08-24T01:12:32.792Z,5.33
2022-08-24T01:15:27.232Z,5.50
2022-08-24T01:18:53.257Z,5.62
2022-08-24T01:22:18.993Z,6.72
2022-08-24T01:25:25.831Z,5.92
2022-08-24T01:28:33.147Z,5.53
2022-08-24T01:31:38.933Z,5.55
2022-08-24T01:34:44.724Z,6.47
2022-08-24T01:37:49.959Z,6.67
2022-08-24T01:41:03.075Z,5.78
2022-08-24T01:44:09.421Z,7.33
2022-08-24T01:47:16.186Z,6.75
2022-08-24T01:50:22.076Z,5.92
2022-08-24T01:53:29.221Z,5.37
2022-08-24T01:56:38.153Z,6.15
2022-08-24T01:59:43.013Z,6.50
2022-08-24T02:02:42.606Z,8.33
2022-08-24T02:05:35.997Z,8.20
2022-08-24T02:08:43.807Z,8.20
2022-08-24T02:11:50.708Z,7.60
2022-08-24T02:14:59.243Z,8.43
2022-08-24T02:18:04.560Z,7.97
2022-08-24T02:21:11.359Z,6.95
2022-08-24T02:24:18.760Z,7.80
2022-08-24T02:27:23.822Z,7.55
2022-08-24T02:30:29.620Z,7.25
2022-08-24T02:33:35.386Z,6.95
2022-08-24T02:36:42.248Z,8.38
2022-08-24T02:39:48.071Z,7.33
2022-08-24T02:42:54.737Z,6.53
2022-08-24T02:46:01.455Z,7.53
2022-08-24T02:49:11.297Z,7.00
2022-08-24T02:52:15.491Z,7.62
2022-08-24T02:55:21.413Z,5.33
2022-08-24T02:58:27.965Z,6.17
2022-08-24T03:01:33.688Z,6.10
2022-08-24T03:04:38.735Z,5.17
2022-08-24T03:07:45.620Z,7.47
2022-08-24T03:10:52.407Z,6.92
2022-08-24T03:13:58.925Z,7.25
2022-08-24T03:17:05.313Z,6.22
2022-08-24T03:20:10.631Z,6.15
2022-08-24T03:23:17.217Z,6.58
2022-08-24T03:26:22.961Z,5.75
2022-08-24T03:29:24.203Z,6.87
2022-08-24T03:32:09.986Z,6.42
2022-08-24T03:35:02.238Z,6.42
2022-08-24T03:37:48.022Z,5.35
2022-08-24T03:40:40.566Z,6.00
2022-08-24T03:43:59.657Z,5.30
2022-08-24T03:47:05.111Z,6.10
2022-08-24T03:50:10.091Z,6.75
2022-08-24T03:53:15.144Z,5.92
2022-08-24T03:56:20.924Z,5.80
2022-08-24T03:59:27.456Z,5.55
2022-08-24T04:02:33.742Z,4.92
2022-08-24T04:05:39.159Z,5.03
2022-08-24T04:08:46.891Z,5.47
2022-08-24T04:11:53.670Z,5.00
2022-08-24T04:15:02.281Z,5.72
2022-08-24T04:18:08.819Z,5.37
2022-08-24T04:21:14.933Z,5.67
2022-08-24T04:24:21.330Z,4.90
2022-08-24T04:27:27.390Z,5.00
2022-08-24T04:30:33.101Z,5.15
2022-08-24T04:33:41.580Z,5.00
2022-08-24T04:36:47.081Z,4.33
2022-08-24T04:39:53.119Z,5.37
2022-08-24T04:43:01.431Z,3.95
2022-08-24T04:46:10.030Z,4.65
2022-08-24T04:49:15.728Z,4.37
2022-08-24T04:52:22.183Z,4.30
2022-08-24T04:55:27.872Z,4.92
2022-08-24T04:58:34.319Z,3.95
2022-08-24T05:01:42.086Z,4.03
2022-08-24T05:04:47.633Z,4.17
2022-08-24T05:07:56.565Z,3.67
2022-08-24T05:11:02.878Z,3.85
2022-08-24T05:14:11.191Z,4.65
2022-08-24T05:17:19.278Z,3.87
2022-08-24T05:20:28.395Z,3.30
2022-08-24T05:23:37.093Z,3.62
2022-08-24T05:26:45.239Z,3.55
2022-08-24T05:29:53.971Z,3.37
2022-08-24T05:32:59.495Z,4.08
2022-08-24T05:36:06.126Z,3.80
2022-08-24T05:39:12.865Z,3.20
2022-08-24T05:42:20.442Z,3.50
2022-08-24T05:45:25.268Z,3.33
2022-08-24T05:48:30.793Z,2.90
2022-08-24T05:51:39.021Z,3.45
2022-08-24T05:54:44.052Z,2.90
2022-08-24T05:57:51.924Z,2.50
2022-08-24T06:00:58.553Z,3.25
2022-08-24T06:04:05.992Z,3.67
2022-08-24T06:07:11.774Z,2.65
2022-08-24T06:10:35.994Z,3.25
2022-08-24T06:13:26.701Z,2.98
2022-08-24T06:16:34.064Z,2.85
2022-08-24T06:19:39.692Z,3.55
2022-08-24T06:22:45.126Z,3.22
2022-08-24T06:26:15.262Z,3.12
2022-08-24T06:29:18.382Z,2.52
2022-08-24T06:32:25.882Z,3.40
2022-08-24T06:35:31.241Z,2.62
2022-08-24T06:38:37.929Z,2.60
2022-08-24T06:41:45.412Z,2.90
2022-08-24T06:44:54.829Z,2.87
2022-08-24T06:48:02.618Z,3.08
2022-08-24T06:51:09.265Z,2.22
2022-08-24T06:54:15.224Z,2.02
2022-08-24T06:57:20.783Z,2.42
2022-08-24T07:00:27.555Z,2.15
2022-08-24T07:03:33.300Z,2.52
2022-08-24T07:06:41.392Z,2.27
2022-08-24T07:09:46.888Z,2.50
2022-08-24T07:12:53.969Z,2.17
2022-08-24T07:16:06.001Z,2.45
2022-08-24T07:19:16.506Z,2.85
2022-08-24T07:22:23.254Z,2.27
2022-08-24T07:25:28.853Z,2.52
2022-08-24T07:28:35.804Z,2.10
2022-08-24T07:31:42.318Z,2.12
2022-08-24T07:34:58.547Z,2.80
2022-08-24T07:38:11.702Z,2.10
2022-08-24T07:44:38.641Z,2.17
2022-08-24T07:47:56.277Z,2.00
2022-08-24T07:51:17.698Z,1.87
2022-08-24T07:54:25.470Z,2.37
2022-08-24T07:57:31.701Z,2.67
2022-08-24T08:00:37.394Z,2.62
2022-08-24T08:03:44.627Z,3.05
2022-08-24T08:06:53.841Z,2.67
2022-08-24T08:10:00.773Z,3.08
2022-08-24T08:13:09.228Z,2.90
2022-08-24T08:16:15.768Z,2.33
2022-08-24T08:19:21.121Z,2.60
2022-08-24T08:22:39.006Z,2.35
2022-08-24T08:25:47.471Z,2.95
2022-08-24T08:28:57.095Z,2.33
2022-08-24T08:32:03.448Z,2.25
2022-08-24T08:35:10.089Z,2.17
2022-08-24T08:38:16.518Z,2.20
2022-08-24T08:41:45.695Z,3.80
2022-08-24T08:45:21.514Z,2.10
2022-08-24T08:48:43.834Z,3.12
2022-08-24T08:52:32.289Z,2.00
2022-08-24T08:56:13.298Z,2.10
2022-08-24T08:59:29.569Z,2.50
2022-08-24T09:02:55.719Z,3.00
2022-08-24T09:06:31.338Z,2.52
2022-08-24T09:09:57.369Z,2.72
2022-08-24T09:13:30.999Z,2.40
2022-08-24T09:17:21.637Z,2.10
2022-08-24T09:20:43.675Z,2.27
2022-08-24T09:24:18.026Z,1.85
2022-08-24T09:27:42.154Z,2.30
2022-08-24T09:30:52.591Z,2.12
2022-08-24T09:34:05.000Z,2.65
2022-08-24T09:37:20.360Z,2.27
2022-08-24T09:40:18.713Z,2.58
2022-08-24T09:44:10.385Z,2.55
2022-08-24T09:47:20.104Z,2.20
2022-08-24T09:51:03.738Z,1.90
2022-08-24T09:54:37.632Z,1.82
2022-08-24T09:58:11.286Z,2.10
2022-08-24T10:01:57.724Z,2.20
2022-08-24T10:05:17.433Z,2.40
2022-08-24T10:09:23.995Z,2.17
2022-08-24T10:13:14.351Z,2.08
2022-08-24T10:16:43.968Z,2.10
2022-08-24T10:20:31.389Z,1.50
2022-08-24T10:24:29.605Z,1.87
2022-08-24T10:27:42.215Z,1.62
2022-08-24T10:31:01.491Z,2.12
2022-08-24T10:34:24.706Z,1.47
2022-08-24T10:37:43.550Z,2.00
2022-08-24T10:41:01.317Z,2.22
2022-08-24T10:44:52.270Z,1.80
2022-08-24T10:48:03.095Z,1.82
2022-08-24T10:51:35.421Z,1.55
2022-08-24T10:54:41.031Z,1.67
2022-08-24T10:57:56.799Z,1.90
2022-08-24T11:00:58.215Z,1.47
2022-08-24T11:04:13.937Z,1.62
2022-08-24T11:07:35.642Z,2.22
2022-08-24T11:10:43.410Z,1.62
2022-08-24T11:13:49.207Z,1.55
2022-08-24T11:16:58.077Z,1.72
2022-08-24T11:20:06.426Z,1.65
2022-08-24T11:23:18.970Z,1.80
2022-08-24T11:26:34.759Z,1.80
2022-08-24T11:30:04.703Z,1.50
2022-08-24T11:33:18.937Z,2.22
2022-08-24T11:36:31.561Z,2.27
2022-08-24T11:39:43.735Z,2.17
2022-08-24T11:43:19.205Z,2.05
2022-08-24T11:46:45.062Z,1.75
2022-08-24T11:50:00.730Z,1.80
2022-08-24T11:53:30.880Z,2.00
2022-08-24T11:57:05.250Z,2.25
2022-08-24T12:00:26.324Z,2.02
2022-08-24T12:04:07.370Z,2.30
2022-08-24T12:07:22.350Z,2.35
2022-08-24T12:10:55.408Z,2.33
2022-08-24T12:14:38.778Z,2.30
2022-08-24T12:18:26.143Z,2.60
2022-08-24T12:21:36.290Z,3.65
2022-08-24T12:25:15.436Z,5.45
2022-08-24T12:28:23.555Z,5.92
2022-08-24T12:31:51.704Z,4.95
2022-08-24T12:35:35.648Z,3.98
2022-08-24T12:38:46.810Z,2.77
2022-08-24T12:42:21.771Z,3.37
2022-08-24T12:45:30.355Z,3.45
2022-08-24T12:49:01.956Z,5.37
2022-08-24T12:52:28.335Z,6.45
2022-08-24T12:56:02.447Z,7.33
2022-08-24T12:59:39.366Z,7.40
2022-08-24T13:02:56.612Z,6.55
2022-08-24T13:06:06.660Z,6.50
2022-08-24T13:09:31.412Z,5.58
2022-08-24T13:13:01.404Z,4.45
2022-08-24T13:16:11.175Z,5.28
2022-08-24T13:19:33.618Z,4.53
2022-08-24T13:23:08.199Z,4.83
2022-08-24T13:26:40.063Z,3.47
2022-08-24T13:29:49.643Z,2.60
2022-08-24T13:33:00.550Z,3.40
2022-08-24T13:36:16.596Z,3.08
2022-08-24T13:40:09.858Z,3.42
2022-08-24T13:43:39.644Z,3.37
2022-08-24T13:47:25.548Z,3.25
2022-08-24T13:51:07.543Z,3.52
2022-08-24T13:54:38.186Z,3.17
2022-08-24T13:57:59.339Z,3.75
2022-08-24T14:01:33.053Z,3.62
2022-08-24T14:04:56.375Z,3.10
2022-08-24T14:08:30.310Z,3.77
2022-08-24T14:12:02.151Z,3.55
2022-08-24T14:15:46.931Z,3.90
2022-08-24T14:19:17.129Z,3.15
2022-08-24T14:25:44.472Z,2.85
2022-08-24T14:28:58.122Z,3.55
2022-08-24T14:32:12.933Z,3.55
2022-08-24T14:35:37.770Z,2.98
2022-08-24T14:39:00.450Z,3.22
2022-08-24T14:42:34.874Z,2.87
2022-08-24T14:46:20.357Z,3.15
2022-08-24T14:49:51.882Z,2.37
2022-08-24T14:53:04.459Z,2.90
2022-08-24T14:56:25.022Z,3.20
2022-08-24T14:59:54.610Z,3.00
2022-08-24T15:03:40.910Z,2.52
2022-08-24T15:07:09.081Z,2.60
2022-08-24T15:10:17.179Z,3.12
2022-08-24T15:13:29.265Z,2.92
2022-08-24T15:16:55.551Z,3.70
2022-08-24T15:20:26.688Z,3.58
2022-08-24T15:24:10.008Z,3.50
2022-08-24T15:27:50.721Z,3.75
2022-08-24T15:31:05.733Z,4.37
2022-08-24T15:34:15.193Z,5.37
2022-08-24T15:37:22.778Z,5.25
2022-08-24T15:40:39.959Z,5.90
2022-08-24T15:43:48.887Z,6.13
2022-08-24T15:47:01.802Z,6.65
2022-08-24T15:50:16.040Z,6.47
2022-08-24T15:53:23.108Z,6.95
2022-08-24T15:56:47.407Z,5.92
2022-08-24T15:59:58.470Z,7.72
2022-08-24T16:03:08.546Z,7.22
2022-08-24T16:06:16.429Z,7.60
2022-08-24T16:09:37.248Z,8.10
2022-08-24T16:12:42.083Z,7.80
2022-08-24T16:15:47.865Z,7.70
2022-08-24T16:19:12.695Z,7.78
2022-08-24T16:22:23.214Z,7.83
2022-08-24T16:25:34.893Z,6.42
2022-08-24T16:28:47.770Z,8.60
2022-08-24T16:32:05.126Z,7.60
2022-08-24T16:35:27.750Z,7.03
2022-08-24T16:38:35.919Z,6.28
2022-08-24T16:41:45.517Z,6.03
2022-08-24T16:44:57.163Z,6.28
2022-08-24T16:48:05.155Z,6.95
2022-08-24T16:51:12.887Z,6.62
2022-08-24T16:54:19.061Z,6.75
2022-08-24T16:57:30.028Z,6.15
2022-08-24T17:00:39.458Z,7.10
2022-08-24T17:03:45.160Z,6.22
2022-08-24T17:06:50.898Z,5.33
2022-08-24T17:09:58.772Z,4.40
2022-08-24T17:13:04.957Z,3.77
2022-08-24T17:16:10.961Z,3.70
2022-08-24T17:19:19.297Z,2.83
2022-08-24T17:22:27.677Z,2.60
2022-08-24T17:25:38.230Z,2.62
2022-08-24T17:28:45.843Z,2.80
2022-08-24T17:31:52.785Z,2.55
2022-08-24T17:34:59.074Z,2.47
2022-08-24T17:38:05.247Z,1.90
2022-08-24T17:41:11.327Z,2.00
2022-08-24T17:44:20.445Z,2.40
2022-08-24T17:47:25.200Z,1.90
2022-08-24T17:50:31.169Z,2.45
2022-08-24T17:53:36.688Z,1.75
2022-08-24T17:56:45.901Z,1.98
2022-08-24T17:59:51.751Z,2.85
2022-08-24T18:02:57.362Z,2.10
2022-08-24T18:06:03.565Z,2.55
2022-08-24T18:09:11.454Z,2.02
2022-08-24T18:12:17.662Z,2.47
2022-08-24T18:15:34.614Z,2.08
2022-08-24T18:18:30.685Z,2.15
2022-08-24T18:21:35.783Z,2.08
2022-08-24T18:24:41.135Z,2.42
2022-08-24T18:27:46.899Z,2.77
2022-08-24T18:30:52.860Z,2.40
2022-08-24T18:33:58.222Z,2.10
2022-08-24T18:37:04.152Z,2.55
2022-08-24T18:40:08.832Z,2.33
2022-08-24T18:43:16.310Z,2.40
2022-08-24T18:46:22.443Z,2.33
2022-08-24T18:49:27.953Z,3.37
2022-08-24T18:52:34.620Z,2.90
2022-08-24T18:55:40.175Z,2.52
2022-08-24T18:58:46.192Z,2.77
2022-08-24T19:02:09.467Z,3.05
2022-08-24T19:05:24.898Z,2.17
2022-08-24T19:08:31.691Z,1.85
2022-08-24T19:11:38.571Z,2.30
2022-08-24T19:14:46.496Z,1.77
2022-08-24T19:17:51.379Z,2.45
2022-08-24T19:20:52.585Z,2.05
2022-08-24T19:23:59.446Z,3.40
2022-08-24T19:27:04.870Z,2.15
2022-08-24T19:30:11.741Z,2.65
2022-08-24T19:33:18.010Z,2.00
2022-08-24T19:36:23.962Z,2.40
2022-08-24T19:39:31.679Z,3.08
2022-08-24T19:42:35.543Z,2.58
2022-08-24T19:46:00.309Z,2.72
2022-08-24T19:49:06.025Z,2.52
2022-08-24T19:52:13.356Z,3.17
2022-08-24T19:55:24.089Z,3.22
2022-08-24T19:58:45.385Z,3.40
2022-08-24T20:01:52.112Z,3.72
2022-08-24T20:04:56.980Z,3.10
2022-08-24T20:08:03.336Z,3.27
2022-08-24T20:11:09.243Z,3.60
2022-08-24T20:14:15.355Z,3.72
2022-08-24T20:17:20.964Z,3.62
2022-08-24T20:20:27.914Z,3.45
2022-08-24T20:23:33.237Z,3.55
2022-08-24T20:26:38.648Z,3.37
2022-08-24T20:29:44.067Z,3.42
2022-08-24T20:32:49.263Z,3.52
2022-08-24T20:35:54.832Z,3.02
2022-08-24T20:39:01.784Z,3.95
2022-08-24T20:42:10.894Z,3.77
2022-08-24T20:45:15.175Z,3.50
2022-08-24T20:48:21.622Z,3.05
2022-08-24T20:51:27.328Z,3.75
2022-08-24T20:54:37.685Z,3.58
2022-08-24T20:57:40.122Z,3.45
2022-08-24T21:00:47.923Z,3.55
2022-08-24T21:03:54.762Z,3.52
2022-08-24T21:07:01.249Z,3.20
2022-08-24T21:10:07.929Z,3.58
2022-08-24T21:13:14.373Z,3.67
2022-08-24T21:16:22.267Z,3.58
2022-08-24T21:19:28.433Z,3.02
2022-08-24T21:22:34.150Z,2.90
2022-08-24T21:25:39.829Z,4.05
2022-08-24T21:28:45.457Z,3.40
2022-08-24T21:31:53.848Z,3.80
2022-08-24T21:34:59.514Z,3.02
2022-08-24T21:38:05.907Z,3.60
2022-08-24T21:41:13.853Z,3.42
2022-08-24T21:44:19.365Z,3.20
2022-08-24T21:47:24.753Z,3.22
2022-08-24T21:50:30.459Z,2.92
2022-08-24T21:53:35.693Z,2.90
2022-08-24T21:56:42.970Z,2.80
2022-08-24T21:59:48.911Z,3.08
2022-08-24T22:02:49.309Z,3.10
2022-08-24T22:05:56.296Z,3.02
2022-08-24T22:09:02.012Z,2.67
2022-08-24T22:12:07.673Z,2.52
2022-08-24T22:15:13.764Z,2.87
2022-08-24T22:18:19.986Z,2.52
2022-08-24T22:21:29.485Z,2.55
2022-08-24T22:24:34.581Z,2.87
2022-08-24T22:27:40.084Z,2.65
2022-08-24T22:30:48.128Z,2.77
2022-08-24T22:33:54.434Z,2.70
2022-08-24T22:37:02.248Z,2.80
2022-08-24T22:40:12.378Z,3.10
2022-08-24T22:43:15.245Z,2.50
2022-08-24T22:46:21.015Z,2.90
2022-08-24T22:49:26.594Z,2.27
2022-08-24T22:52:33.243Z,2.83
2022-08-24T22:55:39.529Z,2.95
2022-08-24T22:58:45.416Z,2.50
2022-08-24T23:01:54.422Z,2.75
2022-08-24T23:05:02.224Z,2.30
2022-08-24T23:08:08.068Z,2.72
2022-08-24T23:11:14.733Z,3.00
2022-08-24T23:14:21.322Z,3.20
2022-08-24T23:17:27.675Z,2.95
2022-08-24T23:20:33.670Z,3.02
2022-08-24T23:23:40.029Z,3.10
2022-08-24T23:26:45.930Z,3.25
2022-08-24T23:29:46.156Z,3.22
2022-08-24T23:32:51.398Z,2.75
2022-08-24T23:35:56.640Z,2.83
2022-08-24T23:39:05.509Z,3.42
2022-08-24T23:42:10.549Z,3.52
2022-08-24T23:45:16.058Z,3.02
2022-08-24T23:48:22.127Z,3.05
2022-08-24T23:51:30.281Z,2.72
2022-08-24T23:54:36.127Z,2.92
2022-08-24T23:57:41.487Z,3.02
